Time;durP1;ratioP1;P1;durP2;ratioP2;P2;SDS_P1;SDS_P2;PMS_P1;PMS_P2;Temp;Humidity;BMP_temperature;BMP_pressure;BME280_temperature;BME280_humidity;BME280_pressure;Samples;Min_cycle;Max_cycle;Signal;HPM_P1;HPM_P2
2023/07/03 00:01:03;;;;;;;20.10;2.80;;;;;;;-145.18;100.00;46599.84;5053979;28;20029;-59
2023/07/03 00:03:28;;;;;;;10.63;2.47;;;;;;;-145.18;100.00;46588.13;5072047;28;20541;-59
2023/07/03 00:05:54;;;;;;;14.63;2.70;;;;;;;-145.18;100.00;46576.41;5072308;28;20036;-59
2023/07/03 00:08:19;;;;;;;13.97;3.07;;;;;;;-145.18;100.00;46584.22;5070009;28;20028;-59
2023/07/03 00:10:45;;;;;;;20.13;3.20;;;;;;;-145.18;100.00;46590.06;5073888;28;20037;-60
2023/07/03 00:13:10;;;;;;;14.43;3.07;;;;;;;-145.18;100.00;46599.84;5054020;28;20471;-59
2023/07/03 00:15:36;;;;;;;13.97;2.87;;;;;;;-145.18;100.00;46590.06;5073654;28;20114;-59
2023/07/03 00:18:02;;;;;;;13.93;3.03;;;;;;;-145.18;100.00;46580.31;5074587;28;20032;-59
2023/07/03 00:20:27;;;;;;;11.97;2.23;;;;;;;-145.18;100.00;46584.22;5054779;28;20047;-59
2023/07/03 00:22:54;;;;;;;21.77;3.33;;;;;;;-145.18;100.00;46590.06;5071381;28;20052;-59
2023/07/03 00:25:19;;;;;;;13.50;2.83;;;;;;;-145.18;100.00;46582.25;5073843;28;20036;-59
2023/07/03 00:27:46;;;;;;;11.63;2.37;;;;;;;-145.18;100.00;46578.34;5071790;28;20415;-59
2023/07/03 00:30:13;;;;;;;16.47;3.03;;;;;;;-145.18;100.00;46580.31;5071313;28;20419;-59
2023/07/03 00:32:38;;;;;;;17.73;3.10;;;;;;;-145.18;100.00;46576.41;5071783;28;20037;-59
2023/07/03 00:35:04;;;;;;;19.07;3.73;;;;;;;-145.18;100.00;46578.34;5053080;28;20404;-59
2023/07/03 00:37:29;;;;;;;17.53;3.77;;;;;;;-145.18;100.00;46582.25;5072178;28;20123;-59
2023/07/03 00:39:54;;;;;;;17.07;3.07;;;;;;;-145.18;100.00;46576.41;5071397;28;20077;-59
2023/07/03 00:42:24;;;;;;;14.83;3.40;;;;;;;-145.18;100.00;46582.25;5071818;28;20052;-59
2023/07/03 00:44:50;;;;;;;22.03;3.80;;;;;;;-145.18;100.00;46572.50;5072328;28;20047;-59
2023/07/03 00:47:15;;;;;;;15.07;2.77;;;;;;;-145.18;100.00;46572.50;5052671;28;20024;-59
2023/07/03 00:49:41;;;;;;;13.20;2.73;;;;;;;-145.18;100.00;46574.44;5071848;28;20038;-59
2023/07/03 00:52:09;;;;;;;9.70;2.80;;;;;;;-145.18;100.00;46566.63;5071668;28;20036;-59
2023/07/03 00:54:35;;;;;;;18.50;2.70;;;;;;;-145.18;100.00;46574.44;5073101;28;20059;-59
2023/07/03 00:57:00;;;;;;;15.60;2.93;;;;;;;-145.18;100.00;46572.50;5071855;28;20066;-59
2023/07/03 00:59:26;;;;;;;15.93;3.03;;;;;;;-145.18;100.00;46568.59;5073177;28;20115;-59
2023/07/03 01:02:06;;;;;;;16.93;3.23;;;;;;;-145.18;100.00;46564.69;5055240;28;20120;-59
2023/07/03 01:04:46;;;;;;;20.17;3.23;;;;;;;-145.18;100.00;46566.63;5071340;28;20123;-60
2023/07/03 01:07:16;;;;;;;10.17;3.03;;;;;;;-145.18;100.00;46566.63;5069892;28;20039;-59
2023/07/03 01:09:53;;;;;;;15.60;3.13;;;;;;;-145.18;100.00;46562.72;5072330;28;20142;-60
2023/07/03 01:12:21;;;;;;;16.80;2.73;;;;;;;-145.18;100.00;46564.69;5070623;28;20481;-59
2023/07/03 01:14:48;;;;;;;18.50;3.10;;;;;;;-145.18;100.00;46564.69;5070565;28;20032;-59
2023/07/03 01:17:14;;;;;;;16.13;3.17;;;;;;;-145.18;100.00;46564.69;5070064;28;20119;-59
2023/07/03 01:19:43;;;;;;;21.63;3.20;;;;;;;-145.18;100.00;46568.59;5072946;28;20103;-58
2023/07/03 01:22:24;;;;;;;19.20;3.90;;;;;;;-145.18;100.00;46564.69;5071127;28;20028;-59
2023/07/03 01:24:58;;;;;;;17.73;2.87;;;;;;;-145.18;100.00;46566.63;5070646;28;20039;-59
2023/07/03 01:27:27;;;;;;;21.17;3.77;;;;;;;-145.18;100.00;46564.69;5069231;28;20449;-59
2023/07/03 01:29:53;;;;;;;13.37;2.67;;;;;;;-145.18;100.00;46613.50;5070682;28;20491;-59
2023/07/03 01:32:21;;;;;;;14.73;2.93;;;;;;;-145.18;100.00;46625.22;5072701;28;20048;-59
2023/07/03 01:34:49;;;;;;;22.13;3.70;;;;;;;-145.18;100.00;46631.09;5071720;28;20387;-59
2023/07/03 01:37:17;;;;;;;18.97;3.60;;;;;;;-145.18;100.00;46650.63;5072082;28;20031;-59
2023/07/03 01:39:45;;;;;;;21.00;3.37;;;;;;;-145.18;100.00;46679.94;5072861;28;20046;-59
2023/07/03 01:42:12;;;;;;;15.20;3.70;;;;;;;-145.18;100.00;46666.25;5073519;28;20066;-59
2023/07/03 01:44:38;;;;;;;14.83;3.80;;;;;;;-145.18;100.00;46676.03;5072883;28;20120;-59
2023/07/03 01:47:06;;;;;;;17.03;2.93;;;;;;;-145.18;100.00;46695.56;5072691;28;20115;-59
2023/07/03 01:49:32;;;;;;;23.53;3.83;;;;;;;-145.18;100.00;46697.50;5073504;28;20032;-59
2023/07/03 01:52:18;;;;;;;21.37;3.57;;;;;;;-145.18;100.00;46701.41;5072720;28;20388;-59
2023/07/03 01:54:57;;;;;;;21.65;3.08;;;;;;;-145.18;100.00;46705.31;5074290;28;20133;-59
2023/07/03 01:57:40;;;;;;;16.17;3.60;;;;;;;-145.18;100.00;46699.47;5070341;28;20059;-59
2023/07/03 02:00:09;;;;;;;23.40;3.93;;;;;;;-145.18;100.00;46697.50;5070950;28;20078;-59
2023/07/03 02:02:37;;;;;;;14.97;3.33;;;;;;;-145.18;100.00;46697.50;5070955;28;20078;-59
2023/07/03 02:05:08;;;;;;;19.87;4.80;;;;;;;-145.18;100.00;46691.66;5070899;28;20430;-59
2023/07/03 02:07:35;;;;;;;15.00;3.83;;;;;;;-145.18;100.00;46689.69;5068870;28;20383;-60
2023/07/03 02:10:02;;;;;;;21.03;3.83;;;;;;;-145.18;100.00;46691.66;5070708;28;20075;-59
2023/07/03 02:12:28;;;;;;;24.90;3.90;;;;;;;-145.18;100.00;46681.88;5070990;28;20035;-59
2023/07/03 02:14:54;;;;;;;16.17;4.10;;;;;;;-145.18;100.00;46679.94;5070429;28;20044;-59
2023/07/03 02:17:19;;;;;;;19.97;3.67;;;;;;;-145.18;100.00;46685.78;5069164;28;20082;-59
2023/07/03 02:19:44;;;;;;;18.37;4.60;;;;;;;-145.18;100.00;46674.06;5070834;28;20040;-59
2023/07/03 02:22:10;;;;;;;24.57;4.00;;;;;;;-145.18;100.00;46676.03;5054865;28;20040;-59
2023/07/03 02:24:35;;;;;;;22.00;3.73;;;;;;;-145.18;100.00;46674.06;5053731;28;20043;-59
2023/07/03 02:27:00;;;;;;;17.87;3.57;;;;;;;-145.18;100.00;46674.06;5072035;28;20037;-59
2023/07/03 02:29:26;;;;;;;27.73;3.83;;;;;;;-145.18;100.00;46668.22;5070879;28;20484;-59
2023/07/03 02:31:51;;;;;;;17.93;3.93;;;;;;;-145.18;100.00;46668.22;5052535;28;20040;-59
2023/07/03 02:34:17;;;;;;;22.90;3.83;;;;;;;-145.18;100.00;46670.16;5073839;28;20036;-59
2023/07/03 02:36:45;;;;;;;20.90;3.60;;;;;;;-145.18;100.00;46664.31;5073066;28;20040;-59
2023/07/03 02:39:11;;;;;;;35.13;4.80;;;;;;;-145.18;100.00;46672.13;5073673;28;20036;-59
2023/07/03 02:41:37;;;;;;;25.60;4.60;;;;;;;-145.18;100.00;46660.41;5073900;28;20055;-59
2023/07/03 02:44:02;;;;;;;23.60;4.03;;;;;;;-145.18;100.00;46660.41;5071116;28;20037;-59
2023/07/03 02:46:29;;;;;;;24.37;4.67;;;;;;;-145.18;100.00;46658.44;5073117;28;20052;-59
2023/07/03 02:48:54;;;;;;;24.30;4.77;;;;;;;-145.18;100.00;46664.31;5074072;28;20056;-59
2023/07/03 02:51:19;;;;;;;24.43;4.57;;;;;;;-145.18;100.00;46658.44;5076570;28;20510;-59
2023/07/03 02:53:45;;;;;;;24.47;4.37;;;;;;;-145.18;100.00;46666.25;5073737;28;20047;-59
2023/07/03 02:56:10;;;;;;;19.23;3.70;;;;;;;-145.18;100.00;46664.31;5074287;28;20579;-62
2023/07/03 02:58:36;;;;;;;26.17;4.23;;;;;;;-145.18;100.00;46650.63;5073904;28;20441;-62
2023/07/03 03:01:02;;;;;;;18.63;3.50;;;;;;;-145.18;100.00;46660.41;5074015;28;20463;-62
2023/07/03 03:03:28;;;;;;;22.03;4.30;;;;;;;-145.18;100.00;46656.50;5073616;28;20392;-62
2023/07/03 03:05:57;;;;;;;16.63;3.83;;;;;;;-145.18;100.00;46662.34;5073505;28;20063;-61
2023/07/03 03:08:23;;;;;;;18.70;3.83;;;;;;;-145.18;100.00;46652.59;5056174;28;20032;-62
2023/07/03 03:10:53;;;;;;;23.13;4.03;;;;;;;-145.18;100.00;46660.41;5073531;28;20029;-62
2023/07/03 03:13:19;;;;;;;18.87;4.27;;;;;;;-145.18;100.00;46660.41;5073746;28;20024;-62
2023/07/03 03:15:44;;;;;;;24.50;4.23;;;;;;;-145.18;100.00;46658.44;5073247;28;20152;-62
2023/07/03 03:18:10;;;;;;;23.17;3.87;;;;;;;-145.18;100.00;46658.44;5055145;28;20070;-62
2023/07/03 03:20:35;;;;;;;19.17;3.73;;;;;;;-145.18;100.00;46658.44;5054882;28;20453;-62
2023/07/03 03:23:01;;;;;;;23.57;4.10;;;;;;;-145.18;100.00;46654.53;5055076;28;20033;-62
2023/07/03 03:25:26;;;;;;;15.67;4.20;;;;;;;-145.18;100.00;46662.34;5055350;28;20032;-62
2023/07/03 03:27:52;;;;;;;23.60;5.07;;;;;;;-145.18;100.00;46660.41;5073065;28;20161;-62
2023/07/03 03:30:17;;;;;;;23.83;4.03;;;;;;;-145.18;100.00;46656.50;5076536;28;20029;-62
2023/07/03 03:32:43;;;;;;;20.47;4.67;;;;;;;-145.18;100.00;46656.50;5072899;28;20392;-62
2023/07/03 03:35:09;;;;;;;15.37;3.57;;;;;;;-145.18;100.00;46658.44;5072723;28;20205;-62
2023/07/03 03:37:34;;;;;;;18.57;3.73;;;;;;;-145.18;100.00;46656.50;5056121;28;20251;-62
2023/07/03 03:39:59;;;;;;;15.50;3.90;;;;;;;-145.18;100.00;46656.50;5075503;28;20554;-62
2023/07/03 03:42:25;;;;;;;22.47;4.57;;;;;;;-145.18;100.00;46658.44;5072892;28;20135;-61
2023/07/03 03:44:50;;;;;;;23.77;4.20;;;;;;;-145.18;100.00;46654.53;5076221;28;20123;-62
2023/07/03 03:47:16;;;;;;;25.47;4.17;;;;;;;-145.18;100.00;46658.44;5072192;28;20043;-62
2023/07/03 03:49:41;;;;;;;23.07;4.63;;;;;;;-145.18;100.00;46652.59;5056425;28;20165;-62
2023/07/03 03:52:07;;;;;;;19.80;4.80;;;;;;;-145.18;100.00;46656.50;5070699;28;20407;-62
2023/07/03 03:54:32;;;;;;;16.60;3.63;;;;;;;-145.18;100.00;46656.50;5074128;28;20028;-62
2023/07/03 03:56:58;;;;;;;24.83;4.33;;;;;;;-145.18;100.00;46656.50;5072628;28;20028;-62
2023/07/03 03:59:23;;;;;;;21.20;5.13;;;;;;;-145.18;100.00;46652.59;5074618;28;20429;-62
2023/07/03 04:01:50;;;;;;;19.90;3.90;;;;;;;-145.18;100.00;46650.63;5071056;28;20113;-62
2023/07/03 04:04:16;;;;;;;30.83;5.13;;;;;;;-145.18;100.00;46650.63;5054596;28;20535;-62
2023/07/03 04:06:43;;;;;;;14.97;4.33;;;;;;;-145.18;100.00;46652.59;5071590;28;20170;-59
2023/07/03 04:09:08;;;;;;;21.30;4.43;;;;;;;-145.18;100.00;46650.63;5074252;28;20037;-59
2023/07/03 04:11:34;;;;;;;21.23;4.23;;;;;;;-145.18;100.00;46656.50;5072429;28;20043;-59
2023/07/03 04:14:00;;;;;;;21.80;4.67;;;;;;;-145.18;100.00;46654.53;5073259;28;20596;-59
2023/07/03 04:16:28;;;;;;;25.43;4.53;;;;;;;-145.18;100.00;46654.53;5056124;28;20036;-59
2023/07/03 04:18:54;;;;;;;19.33;4.60;;;;;;;-145.18;100.00;46656.50;5072503;28;20472;-59
2023/07/03 04:21:19;;;;;;;17.93;4.47;;;;;;;-145.18;100.00;46652.59;5072979;28;20044;-59
2023/07/03 04:23:45;;;;;;;23.57;4.03;;;;;;;-145.18;100.00;46654.53;5073920;28;20070;-59
2023/07/03 04:26:10;;;;;;;21.23;4.23;;;;;;;-145.18;100.00;46650.63;5071924;28;20392;-59
2023/07/03 04:28:36;;;;;;;19.47;4.30;;;;;;;-145.18;100.00;46656.50;5072562;28;20041;-59
2023/07/03 04:31:02;;;;;;;17.83;3.60;;;;;;;-145.18;100.00;46662.34;5055660;28;20033;-59
2023/07/03 04:33:28;;;;;;;14.13;3.00;;;;;;;-145.18;100.00;46656.50;5071496;28;20039;-59
2023/07/03 04:35:53;;;;;;;17.50;3.63;;;;;;;-145.18;100.00;46660.41;5071220;28;20040;-59
2023/07/03 04:38:18;;;;;;;23.03;3.57;;;;;;;-145.18;100.00;46654.53;5071407;28;20457;-59
2023/07/03 04:40:45;;;;;;;20.63;4.63;;;;;;;-145.18;100.00;46660.41;5071132;28;20465;-59
2023/07/03 04:43:10;;;;;;;24.67;3.63;;;;;;;-145.18;100.00;46662.34;5072867;28;20052;-59
2023/07/03 04:45:45;;;;;;;24.60;3.93;;;;;;;-145.18;100.00;46662.34;5073352;28;20037;-60
2023/07/03 04:48:11;;;;;;;19.83;3.73;;;;;;;-145.18;100.00;46662.34;5079175;28;20043;-59
2023/07/03 04:50:36;;;;;;;18.43;3.23;;;;;;;-145.18;100.00;46668.22;5080176;28;20028;-59
2023/07/03 04:53:03;;;;;;;20.93;4.57;;;;;;;-145.18;100.00;46668.22;5074022;28;20044;-59
2023/07/03 04:55:29;;;;;;;16.50;3.87;;;;;;;-145.18;100.00;46664.31;5062145;28;20041;-59
2023/07/03 04:57:55;;;;;;;13.40;3.07;;;;;;;-145.18;100.00;46668.22;5079448;28;20631;-59
2023/07/03 05:00:20;;;;;;;18.40;3.57;;;;;;;-145.18;100.00;46664.31;5093166;28;20082;-59
2023/07/03 05:02:48;;;;;;;18.20;3.23;;;;;;;-145.18;100.00;46666.25;5075173;28;20081;-59
2023/07/03 05:05:15;;;;;;;20.33;3.37;;;;;;;-145.18;100.00;46672.13;5092236;28;20513;-59
2023/07/03 05:07:42;;;;;;;15.43;2.83;;;;;;;-145.18;100.00;46668.22;5072887;28;20020;-59
2023/07/03 05:10:09;;;;;;;13.90;3.13;;;;;;;-145.18;100.00;46670.16;5084262;28;20035;-59
2023/07/03 05:12:35;;;;;;;15.03;3.17;;;;;;;-145.18;100.00;46670.16;5084266;28;20122;-60
2023/07/03 05:15:02;;;;;;;17.03;3.37;;;;;;;-145.18;100.00;46672.13;5085022;28;20065;-59
2023/07/03 05:17:27;;;;;;;16.80;3.23;;;;;;;-145.18;100.00;46672.13;5083819;28;20039;-62
2023/07/03 05:19:52;;;;;;;26.77;4.07;;;;;;;-145.18;100.00;46666.25;5079414;28;20395;-62
2023/07/03 05:22:18;;;;;;;20.03;3.10;;;;;;;-145.18;100.00;46670.16;5083921;28;20023;-62
2023/07/03 05:24:43;;;;;;;19.40;3.53;;;;;;;-145.18;100.00;46668.22;5074519;28;20040;-62
2023/07/03 05:27:09;;;;;;;18.90;3.83;;;;;;;-145.18;100.00;46664.31;5081484;28;20506;-62
2023/07/03 05:29:34;;;;;;;23.20;4.63;;;;;;;-145.18;100.00;46664.31;5076150;28;20036;-63
2023/07/03 05:32:01;;;;;;;17.93;3.73;;;;;;;-145.18;100.00;46670.16;5073381;28;20459;-62
2023/07/03 05:34:27;;;;;;;13.70;2.97;;;;;;;-145.18;100.00;46666.25;5080484;28;20067;-62
2023/07/03 05:36:53;;;;;;;18.03;3.53;;;;;;;-145.18;100.00;46662.34;5075317;28;20119;-62
2023/07/03 05:39:19;;;;;;;27.77;4.37;;;;;;;-145.18;100.00;46668.22;5081207;28;20046;-61
2023/07/03 05:41:44;;;;;;;19.07;3.40;;;;;;;-145.18;100.00;46670.16;5075636;28;20516;-62
2023/07/03 05:44:10;;;;;;;24.97;3.77;;;;;;;-145.18;100.00;46670.16;5079487;28;20074;-62
2023/07/03 05:46:35;;;;;;;19.63;3.60;;;;;;;-145.18;100.00;46668.22;5075808;28;20060;-62
2023/07/03 05:49:01;;;;;;;18.27;3.87;;;;;;;-145.18;100.00;46666.25;5079100;28;20059;-62
2023/07/03 05:51:26;;;;;;;18.40;3.70;;;;;;;-145.18;100.00;46668.22;5075608;28;20032;-62
2023/07/03 05:53:53;;;;;;;15.63;3.50;;;;;;;-145.18;100.00;46668.22;5078516;28;20414;-62
2023/07/03 05:56:19;;;;;;;19.87;3.23;;;;;;;-145.18;100.00;46670.16;5075617;28;20130;-62
2023/07/03 05:58:45;;;;;;;15.00;3.73;;;;;;;-145.18;100.00;46670.16;5075959;28;20046;-62
2023/07/03 06:01:11;;;;;;;17.83;3.70;;;;;;;-145.18;100.00;46666.25;5076843;28;20020;-62
2023/07/03 06:03:36;;;;;;;18.63;3.57;;;;;;;-145.18;100.00;46662.34;5073157;28;20115;-62
2023/07/03 06:06:04;;;;;;;21.27;4.20;;;;;;;-145.18;100.00;46670.16;5092001;28;20368;-62
2023/07/03 06:08:30;;;;;;;15.23;3.40;;;;;;;-145.18;100.00;46672.13;5093690;28;20032;-62
2023/07/03 06:10:55;;;;;;;21.77;3.43;;;;;;;-145.18;100.00;46664.31;5092634;28;20089;-62
2023/07/03 06:13:21;;;;;;;23.20;4.17;;;;;;;-145.18;100.00;46670.16;5095367;28;20062;-62
2023/07/03 06:15:46;;;;;;;16.90;3.40;;;;;;;-145.18;100.00;46668.22;5091677;28;20044;-62
2023/07/03 06:18:11;;;;;;;16.17;3.57;;;;;;;-145.18;100.00;46670.16;5086470;28;20035;-62
2023/07/03 06:20:37;;;;;;;18.60;3.53;;;;;;;-145.18;100.00;46668.22;5081386;28;20028;-62
2023/07/03 06:23:03;;;;;;;16.97;3.97;;;;;;;-145.18;100.00;46664.31;5111272;28;20039;-62
2023/07/03 06:25:28;;;;;;;23.93;4.43;;;;;;;-145.18;100.00;46677.97;5091815;28;20025;-59
2023/07/03 06:27:53;;;;;;;14.73;3.43;;;;;;;-145.18;100.00;46674.06;5086474;28;20115;-59
2023/07/03 06:30:19;;;;;;;16.33;3.13;;;;;;;-145.18;100.00;46664.31;5105757;28;20044;-59
2023/07/03 06:32:45;;;;;;;21.13;4.10;;;;;;;-145.18;100.00;46670.16;5075134;28;20029;-59
2023/07/03 06:35:10;;;;;;;16.47;4.00;;;;;;;-145.18;100.00;46672.13;5074934;28;20392;-60
2023/07/03 06:37:35;;;;;;;24.53;4.00;;;;;;;-145.18;100.00;46664.31;5074408;28;20045;-59
2023/07/03 06:40:02;;;;;;;21.10;3.37;;;;;;;-145.18;100.00;46672.13;5077446;28;20028;-59
2023/07/03 06:42:27;;;;;;;19.87;4.27;;;;;;;-145.18;100.00;46668.22;5082513;28;20059;-59
2023/07/03 06:44:52;;;;;;;16.60;3.63;;;;;;;-145.18;100.00;46670.16;5073229;28;20036;-59
2023/07/03 06:47:18;;;;;;;13.93;3.40;;;;;;;-145.18;100.00;46670.16;5076856;28;20460;-60
2023/07/03 06:49:44;;;;;;;21.70;3.83;;;;;;;-145.18;100.00;46666.25;5061043;28;20074;-59
2023/07/03 06:52:10;;;;;;;20.83;3.53;;;;;;;-145.18;100.00;46676.03;5075788;28;20040;-59
2023/07/03 06:54:35;;;;;;;19.70;3.93;;;;;;;-145.18;100.00;46668.22;5073848;28;20033;-60
2023/07/03 06:57:01;;;;;;;11.13;3.43;;;;;;;-145.18;100.00;46672.13;5056155;28;20032;-60
2023/07/03 06:59:26;;;;;;;17.40;3.43;;;;;;;-145.18;100.00;46672.13;5075366;28;20021;-59
2023/07/03 07:01:51;;;;;;;17.23;3.43;;;;;;;-145.18;100.00;46672.13;5059986;28;20115;-59
2023/07/03 07:04:17;;;;;;;13.73;2.90;;;;;;;-145.18;100.00;46674.06;5059856;28;20055;-60
2023/07/03 07:06:42;;;;;;;13.97;3.20;;;;;;;-145.18;100.00;46674.06;5088671;28;20528;-59
2023/07/03 07:09:08;;;;;;;14.27;3.17;;;;;;;-145.18;100.00;46674.06;5072827;28;20036;-60
2023/07/03 07:11:35;;;;;;;17.20;3.67;;;;;;;-145.18;100.00;46674.06;5080799;28;20137;-59
2023/07/03 07:14:04;;;;;;;16.30;3.93;;;;;;;-145.18;100.00;46668.22;5073020;28;20020;-59
2023/07/03 07:16:34;;;;;;;10.43;3.00;;;;;;;-145.18;100.00;46672.13;5073369;28;20035;-60
2023/07/03 07:19:06;;;;;;;18.67;2.90;;;;;;;-145.18;100.00;46672.13;5072832;28;20028;-59
2023/07/03 07:21:33;;;;;;;12.53;2.80;;;;;;;-145.18;100.00;46672.13;5071761;28;20085;-60
2023/07/03 07:24:01;;;;;;;14.83;2.83;;;;;;;-145.18;100.00;46658.44;5088557;28;20028;-60
2023/07/03 07:26:33;;;;;;;14.97;3.63;;;;;;;-145.18;100.00;46658.44;5084068;28;20030;-59
2023/07/03 07:29:00;;;;;;;11.63;2.90;;;;;;;-145.18;100.00;46652.59;5068830;28;20032;-59
2023/07/03 07:31:27;;;;;;;14.37;2.33;;;;;;;-145.18;100.00;46656.50;5073176;28;20040;-60
2023/07/03 07:33:52;;;;;;;7.83;2.47;;;;;;;-145.18;100.00;46662.34;5073582;28;20047;-60
2023/07/03 07:36:21;;;;;;;17.80;2.93;;;;;;;-145.18;100.00;46668.22;5067849;28;20025;-59
2023/07/03 07:38:49;;;;;;;14.80;2.67;;;;;;;-145.18;100.00;46658.44;5073562;28;20036;-59
2023/07/03 07:41:14;;;;;;;13.93;4.13;;;;;;;-145.18;100.00;46666.25;5073702;28;20028;-59
2023/07/03 07:43:40;;;;;;;12.87;3.37;;;;;;;-145.18;100.00;46650.63;5054783;28;20409;-59
2023/07/03 07:46:05;;;;;;;16.20;3.23;;;;;;;-145.18;100.00;46619.38;5086261;28;20039;-60
2023/07/03 07:48:32;;;;;;;28.37;3.90;;;;;;;-145.18;100.00;46592.03;5073071;28;20030;-59
2023/07/03 07:50:57;;;;;;;16.17;3.77;;;;;;;-145.18;100.00;46562.72;5072859;28;20085;-59
2023/07/03 07:53:23;;;;;;;16.53;2.63;;;;;;;-145.18;100.00;46545.16;5073122;28;20028;-59
2023/07/03 07:55:48;;;;;;;12.53;2.33;;;;;;;-145.18;100.00;46541.25;5073260;28;20134;-59
2023/07/03 07:58:13;;;;;;;12.63;2.60;;;;;;;-145.18;100.00;46539.28;5072920;28;20077;-59
2023/07/03 08:00:40;;;;;;;11.53;2.73;;;;;;;-145.18;100.00;46543.19;5073737;28;20464;-59
2023/07/03 08:03:06;;;;;;;13.90;2.50;;;;;;;-145.18;100.00;46541.25;5073160;28;20047;-59
2023/07/03 08:05:31;;;;;;;19.70;2.77;;;;;;;-145.18;100.00;46539.28;5055075;28;20024;-59
2023/07/03 08:07:58;;;;;;;13.50;2.70;;;;;;;-145.18;100.00;46541.25;5055219;28;20108;-59
2023/07/03 08:10:23;;;;;;;16.27;3.30;;;;;;;-145.18;100.00;46547.09;5072615;28;20071;-59
2023/07/03 08:12:52;;;;;;;15.17;2.80;;;;;;;-145.18;100.00;46551.00;5072584;28;20470;-59
2023/07/03 08:15:17;;;;;;;9.93;2.67;;;;;;;-145.18;100.00;46547.09;5072843;28;20035;-60
2023/07/03 08:17:43;;;;;;;16.37;3.23;;;;;;;-145.18;100.00;46552.97;5058127;28;20032;-60
2023/07/03 08:20:11;;;;;;;14.60;2.60;;;;;;;-145.18;100.00;46539.28;5073364;28;20037;-59
2023/07/03 08:22:40;;;;;;;10.90;2.43;;;;;;;-145.18;100.00;46547.09;5088694;28;20036;-60
2023/07/03 08:25:06;;;;;;;15.83;2.87;;;;;;;-145.18;100.00;46549.06;5089152;28;20574;-59
2023/07/03 08:27:32;;;;;;;14.10;2.60;;;;;;;-145.18;100.00;46549.06;5077948;28;20483;-59
2023/07/03 08:29:58;;;;;;;16.40;2.20;;;;;;;-145.18;100.00;46547.09;5080128;28;20036;-59
2023/07/03 08:32:23;;;;;;;16.47;2.67;;;;;;;-145.18;100.00;46543.19;5071998;28;20043;-59
2023/07/03 08:34:50;;;;;;;16.93;2.80;;;;;;;-145.18;100.00;46551.00;5075366;28;20035;-59
2023/07/03 08:37:16;;;;;;;11.13;2.10;;;;;;;-145.18;100.00;46552.97;5074623;28;20489;-60
2023/07/03 08:39:41;;;;;;;9.30;2.93;;;;;;;-145.18;100.00;46570.53;5083045;28;20036;-59
2023/07/03 08:42:26;;;;;;;11.47;2.50;;;;;;;-145.18;100.00;46556.88;5077476;28;20089;-59
2023/07/03 08:44:53;;;;;;;11.97;2.10;;;;;;;-145.18;100.00;46543.19;5071813;28;20455;-60
2023/07/03 08:47:27;;;;;;;17.53;2.53;;;;;;;-145.18;100.00;46564.69;5075307;28;20024;-59
2023/07/03 08:49:53;;;;;;;13.13;2.93;;;;;;;-145.18;100.00;46576.41;5078566;28;20058;-59
2023/07/03 08:52:25;;;;;;;7.87;2.23;;;;;;;-145.18;100.00;46593.97;5078461;28;20032;-59
2023/07/03 08:54:53;;;;;;;8.87;2.10;;;;;;;-145.18;100.00;46613.50;5071995;28;20032;-59
2023/07/03 08:57:20;;;;;;;10.80;2.37;;;;;;;-145.18;100.00;46640.88;5078949;28;20031;-59
2023/07/03 08:59:46;;;;;;;16.27;2.93;;;;;;;-145.18;100.00;46613.50;5078982;28;20070;-60
2023/07/03 09:02:36;;;;;;;10.47;1.77;;;;;;;-145.18;100.00;46625.22;5071471;28;20032;-59
2023/07/03 09:05:35;;;;;;;12.53;2.83;;;;;;;-145.18;100.00;46625.22;5082182;28;20032;-59
2023/07/03 09:08:05;;;;;;;12.17;2.03;;;;;;;-145.18;100.00;46625.22;5059920;28;20159;-59
2023/07/03 09:10:42;;;;;;;8.83;2.00;;;;;;;-145.18;100.00;46627.19;5075951;28;20033;-58
2023/07/03 09:13:14;;;;;;;17.17;2.50;;;;;;;-145.18;100.00;46615.47;5071811;28;20047;-59
2023/07/03 09:15:53;;;;;;;10.00;1.53;;;;;;;-145.18;100.00;46627.19;5082897;28;20047;-59
2023/07/03 09:18:24;;;;;;;8.33;1.97;;;;;;;-145.18;100.00;46631.09;5071345;28;20085;-60
2023/07/03 09:20:50;;;;;;;7.77;2.33;;;;;;;-145.18;100.00;46613.50;5065492;28;20399;-60
2023/07/03 09:23:23;;;;;;;15.53;2.83;;;;;;;-145.18;100.00;46582.25;5084221;28;20036;-60
2023/07/03 09:25:53;;;;;;;15.03;2.03;;;;;;;-145.18;100.00;46836.19;5079751;28;20063;-59
2023/07/03 09:28:19;;;;;;;10.20;1.93;;;;;;;-145.18;100.00;47150.72;5083647;28;20032;-59
2023/07/03 09:30:45;;;;;;;7.97;1.80;;;;;;;-145.18;100.00;47121.41;5077832;28;20040;-59
2023/07/03 09:33:10;;;;;;;7.50;2.03;;;;;;;-145.18;100.00;47119.47;5074847;28;20041;-60
2023/07/03 09:35:40;;;;;;;12.23;2.30;;;;;;;-145.18;100.00;47129.22;5076672;28;20035;-60
2023/07/03 09:38:11;;;;;;;8.77;2.20;;;;;;;-145.18;100.00;47107.72;5077227;28;20064;-60
2023/07/03 09:40:40;;;;;;;14.43;2.07;;;;;;;-145.18;100.00;47109.69;5078619;28;20369;-59
2023/07/03 09:43:21;;;;;;;11.80;2.00;;;;;;;-145.18;100.00;47109.69;5084052;28;20053;-60
2023/07/03 09:45:47;;;;;;;13.43;2.63;;;;;;;-145.18;100.00;47137.03;5079781;28;20028;-60
2023/07/03 09:48:24;;;;;;;12.03;2.17;;;;;;;-145.18;100.00;47117.50;5043558;28;20515;-59
2023/07/03 09:50:50;;;;;;;14.70;2.27;;;;;;;-145.18;100.00;47133.13;5075295;28;20073;-60
2023/07/03 09:53:21;;;;;;;12.03;2.13;;;;;;;-145.18;100.00;47144.84;5081003;28;20036;-60
2023/07/03 09:55:58;;;;;;;10.33;2.27;;;;;;;-145.18;100.00;47158.53;5072338;28;20555;-63
2023/07/03 09:58:28;;;;;;;12.00;2.13;;;;;;;-145.18;100.00;47152.66;5082621;28;20028;-63
2023/07/03 10:00:56;;;;;;;10.97;2.23;;;;;;;-145.18;100.00;47172.19;5078594;28;20492;-63
2023/07/03 10:03:25;;;;;;;14.10;2.47;;;;;;;-145.18;100.00;47191.75;5075184;28;20113;-62
2023/07/03 10:05:51;;;;;;;10.97;2.10;;;;;;;-145.18;100.00;47213.22;5075249;28;20027;-63
2023/07/03 10:08:20;;;;;;;16.47;3.00;;;;;;;-145.18;100.00;47232.75;5074662;28;20024;-62
2023/07/03 10:10:46;;;;;;;12.00;2.40;;;;;;;-145.18;100.00;47244.50;5083407;28;20036;-62
2023/07/03 10:13:23;;;;;;;13.60;2.00;;;;;;;-145.18;100.00;47228.84;5089279;28;20395;-62
2023/07/03 10:15:51;;;;;;;9.03;2.17;;;;;;;-145.18;100.00;47203.47;5088781;28;20055;-62
2023/07/03 10:18:23;;;;;;;9.47;1.47;;;;;;;-145.18;100.00;47197.59;5078394;28;20043;-62
2023/07/03 10:20:50;;;;;;;3.90;1.07;;;;;;;-145.18;100.00;47197.59;5081604;28;20027;-62
2023/07/03 10:23:23;;;;;;;9.60;1.70;;;;;;;-145.18;100.00;47185.88;5090128;28;20089;-62
2023/07/03 10:26:05;;;;;;;11.27;1.40;;;;;;;-145.18;100.00;47189.78;5077542;28;20024;-62
2023/07/03 10:28:54;;;;;;;11.57;2.03;;;;;;;-145.18;100.00;47191.75;5074681;28;20026;-62
2023/07/03 10:31:46;;;;;;;9.27;2.13;;;;;;;-145.18;100.00;47111.66;5074417;28;20024;-62
2023/07/03 10:34:22;;;;;;;10.57;1.63;;;;;;;-145.18;100.00;47148.75;5083201;28;20032;-62
2023/07/03 10:36:49;;;;;;;15.03;2.87;;;;;;;-145.18;100.00;47154.63;5072330;28;20036;-62
2023/07/03 10:39:28;;;;;;;14.60;2.67;;;;;;;-145.18;100.00;47160.47;5082373;28;20086;-62
2023/07/03 10:41:59;;;;;;;7.33;2.10;;;;;;;-145.18;100.00;47148.75;5076367;28;20028;-63
2023/07/03 10:44:33;;;;;;;11.30;2.53;;;;;;;-145.18;100.00;47127.28;5079124;28;20056;-62
2023/07/03 10:47:06;;;;;;;8.50;2.03;;;;;;;-145.18;100.00;47129.22;5079785;28;20038;-62
2023/07/03 10:49:35;;;;;;;7.30;2.40;;;;;;;-145.18;100.00;47121.41;5081421;28;20017;-63
2023/07/03 10:52:11;;;;;;;9.87;2.10;;;;;;;-145.18;100.00;47092.09;5080320;28;20017;-63
2023/07/03 10:54:45;;;;;;;9.17;1.80;;;;;;;-145.18;100.00;47131.19;5073918;28;20107;-62
2023/07/03 10:57:17;;;;;;;6.40;1.80;;;;;;;-145.18;100.00;47066.72;5081851;28;20024;-62
2023/07/03 10:59:49;;;;;;;8.93;1.87;;;;;;;-145.18;100.00;47099.91;5077018;28;20048;-62
2023/07/03 11:02:19;;;;;;;9.40;1.67;;;;;;;-145.18;100.00;47051.09;5073861;28;20021;-63
2023/07/03 11:04:51;;;;;;;9.57;2.63;;;;;;;-145.18;100.00;47086.25;5073875;28;20112;-64